メインページ
METAR-TAF:

METAR-TAF

空港 :

ノイバイ国際空港

ハノイ, ベトナム

緯度: 21-01N, 経度: 105-48E, 海抜: 6m

現時点の気象観測

当レポートは36分前の23:30(UTC)に作成
変向風 2kt
気温 28°C
湿度 70%
気圧 1002 hPa
視程10km以上
高度2700ftの雲はほとんどない, 塔状積雲.
高度4400ftの千切れ雲あり
小雨

METAR: VVNB 162330Z VRB02KT 9999 -RA FEW027TCU BKN044 28/22 Q1002 NOSIG

時間: 07:06 (00:06 UTC)

予報

当レポートは1時間6分前の23:00(UTC)に作成
予報は17日の 00時(UTC)から 17日の 24時(UTC)まで有効
の風 9kt
視程: 6000m
高度2000ftの雲は散在している
確率 40% :
17日の 00時(UTC)から 17日の 03時(UTC)まで一時的に
視程: 4000m
高度1000ftの雲は散在している
高度2700ftの雲はほとんどない, 積乱雲.
高度4000ftの千切れ雲あり
激しい雷雨, 雨
17日の 06時(UTC)から 17日の 11時(UTC)まで一時的に
視程: 3000m
高度800ftの雲は散在している
高度2700ftの雲はほとんどない, 積乱雲.
高度3000ftの千切れ雲あり
激しい雷雨, 大雨

TAF: VVNB 162300Z 1700/1724 01009KT 6000 SCT020 PROB40 TEMPO 1700/1703 4000 TSRA SCT010 FEW027CB BKN040 TEMPO 1706/1711 3000 +TSRA SCT008 FEW027CB BKN030

4,000以上の空港の気象観測と天気予報(METAR報とTAF報)

利用可能な観測所は地図上に黄色い丸と赤い丸で示す。

丸の上にカーソルを重ねると観測所名を参照できる。

次にクリックすると気象観測と天気予報を参照できる。

マップの切り替え:黒色「×」印の緑ボタンをクリックして拡大、「-」印の緑ボタンをクリックして縮小、緑色の三角印をクリックして隣りの地図に切り替え


METAR-TAF: